createdAt,value
2023-10-27T00:01:12.599Z,1.77
2023-10-27T00:04:15.058Z,1.92
2023-10-27T00:07:17.729Z,1.92
2023-10-27T00:10:20.364Z,2.28
2023-10-27T00:13:22.901Z,1.90
2023-10-27T00:16:25.396Z,2.00
2023-10-27T00:19:27.802Z,2.45
2023-10-27T00:22:31.404Z,2.13
2023-10-27T00:25:33.840Z,1.98
2023-10-27T00:28:36.334Z,1.80
2023-10-27T00:31:38.729Z,2.10
2023-10-27T00:34:41.237Z,1.90
2023-10-27T00:37:43.887Z,2.00
2023-10-27T00:40:46.791Z,2.10
2023-10-27T00:43:49.172Z,1.80
2023-10-27T00:46:52.366Z,1.95
2023-10-27T00:49:55.966Z,1.80
2023-10-27T00:52:58.519Z,1.98
2023-10-27T00:56:00.989Z,2.00
2023-10-27T00:59:03.459Z,1.57
2023-10-27T01:02:06.013Z,1.90
2023-10-27T01:05:10.111Z,1.80
2023-10-27T01:08:12.676Z,2.13
2023-10-27T01:11:15.945Z,1.98
2023-10-27T01:14:18.791Z,1.90
2023-10-27T01:17:21.202Z,1.88
2023-10-27T01:20:23.776Z,1.85
2023-10-27T01:23:27.097Z,1.60
2023-10-27T01:26:29.856Z,2.08
2023-10-27T01:29:32.386Z,2.00
2023-10-27T01:32:35.183Z,1.90
2023-10-27T01:35:37.573Z,1.90
2023-10-27T01:38:39.975Z,1.63
2023-10-27T01:41:43.159Z,1.80
2023-10-27T01:44:45.563Z,1.60
2023-10-27T01:47:48.199Z,1.80
2023-10-27T01:50:50.761Z,1.80
2023-10-27T01:53:53.173Z,1.77
2023-10-27T01:56:55.604Z,1.98
2023-10-27T01:59:57.969Z,1.80
2023-10-27T02:03:00.436Z,1.65
2023-10-27T02:06:03.796Z,1.75
2023-10-27T02:09:06.222Z,1.70
2023-10-27T02:12:11.295Z,1.80
2023-10-27T02:15:13.812Z,1.70
2023-10-27T02:18:16.194Z,1.65
2023-10-27T02:21:19.664Z,1.80
2023-10-27T02:24:22.083Z,1.85
2023-10-27T02:27:24.514Z,1.80
2023-10-27T02:30:26.892Z,1.60
2023-10-27T02:33:29.280Z,1.77
2023-10-27T02:36:31.672Z,1.80
2023-10-27T02:39:34.069Z,2.10
2023-10-27T02:42:39.351Z,1.73
2023-10-27T02:45:41.771Z,1.80
2023-10-27T02:48:44.239Z,1.60
2023-10-27T02:51:46.631Z,1.98
2023-10-27T02:54:49.035Z,1.88
2023-10-27T02:57:51.405Z,1.85
2023-10-27T03:00:53.911Z,1.70
2023-10-27T03:03:56.313Z,1.90
2023-10-27T03:06:58.757Z,1.80
2023-10-27T03:10:03.826Z,1.77
2023-10-27T03:13:09.623Z,1.95
2023-10-27T03:16:12.248Z,1.80
2023-10-27T03:19:14.758Z,1.50
2023-10-27T03:22:18.534Z,1.77
2023-10-27T03:25:21.224Z,1.60
2023-10-27T03:28:23.812Z,1.52
2023-10-27T03:31:27.187Z,1.50
2023-10-27T03:34:29.705Z,1.30
2023-10-27T03:37:32.182Z,1.27
2023-10-27T03:40:34.655Z,1.60
2023-10-27T03:43:38.315Z,1.40
2023-10-27T03:46:40.717Z,1.57
2023-10-27T03:49:43.256Z,1.38
2023-10-27T03:52:45.779Z,1.30
2023-10-27T03:55:54.656Z,1.40
2023-10-27T03:58:57.124Z,1.40
2023-10-27T04:02:00.009Z,1.30
2023-10-27T04:05:02.516Z,1.50
2023-10-27T04:08:08.052Z,1.40
2023-10-27T04:11:10.396Z,1.52
2023-10-27T04:14:12.837Z,1.40
2023-10-27T04:17:15.411Z,1.53
2023-10-27T04:20:17.883Z,2.05
2023-10-27T04:23:20.512Z,2.00
2023-10-27T04:26:23.039Z,1.90
2023-10-27T04:29:25.429Z,2.30
2023-10-27T04:32:27.895Z,2.13
2023-10-27T04:35:30.313Z,2.75
2023-10-27T04:38:33.138Z,2.20
2023-10-27T04:41:35.524Z,2.67
2023-10-27T04:44:37.930Z,2.40
2023-10-27T04:47:40.401Z,2.40
2023-10-27T04:50:43.048Z,2.05
2023-10-27T04:53:45.441Z,2.40
2023-10-27T04:56:48.531Z,2.50
2023-10-27T04:59:51.024Z,2.40
2023-10-27T05:02:54.743Z,2.30
2023-10-27T05:06:10.163Z,2.28
2023-10-27T05:09:13.988Z,2.38
2023-10-27T05:12:18.263Z,2.00
2023-10-27T05:15:20.755Z,2.20
2023-10-27T05:18:23.535Z,2.20
2023-10-27T05:21:29.185Z,2.30
2023-10-27T05:24:33.140Z,2.05
2023-10-27T05:27:35.583Z,2.10
2023-10-27T05:30:38.934Z,2.45
2023-10-27T05:33:41.464Z,2.80
2023-10-27T05:36:43.955Z,2.75
2023-10-27T05:39:46.604Z,2.95
2023-10-27T05:42:49.138Z,3.00
2023-10-27T05:45:51.715Z,2.72
2023-10-27T05:48:54.220Z,3.10
2023-10-27T05:51:56.819Z,3.10
2023-10-27T05:54:59.277Z,2.97
2023-10-27T05:58:01.815Z,3.47
2023-10-27T06:01:04.816Z,2.90
2023-10-27T06:04:07.351Z,2.90
2023-10-27T06:07:12.716Z,3.22
2023-10-27T06:10:16.075Z,3.30
2023-10-27T06:13:22.508Z,2.88
2023-10-27T06:16:40.381Z,2.92
2023-10-27T06:19:46.132Z,2.90
2023-10-27T06:22:51.421Z,3.15
2023-10-27T06:26:28.714Z,3.55
2023-10-27T06:29:42.180Z,2.90
2023-10-27T06:32:44.768Z,2.90
2023-10-27T06:35:48.852Z,2.77
2023-10-27T06:38:53.124Z,3.00
2023-10-27T06:41:55.593Z,3.28
2023-10-27T06:44:58.097Z,2.83
2023-10-27T06:48:00.613Z,2.92
2023-10-27T06:51:03.174Z,3.20
2023-10-27T06:54:08.070Z,3.20
2023-10-27T06:57:11.633Z,3.08
2023-10-27T07:00:14.688Z,2.80
2023-10-27T07:03:30.806Z,2.72
2023-10-27T07:06:34.408Z,3.40
2023-10-27T07:09:37.123Z,3.20
2023-10-27T07:12:39.689Z,2.97
2023-10-27T07:15:42.184Z,2.85
2023-10-27T07:18:44.672Z,2.92
2023-10-27T07:21:47.215Z,3.00
2023-10-27T07:24:49.950Z,3.22
2023-10-27T07:27:52.382Z,3.15
2023-10-27T07:30:57.730Z,2.80
2023-10-27T07:34:00.474Z,3.30
2023-10-27T07:37:05.404Z,3.67
2023-10-27T07:40:08.533Z,2.90
2023-10-27T07:43:11.502Z,3.25
2023-10-27T07:46:13.974Z,3.10
2023-10-27T07:49:16.538Z,2.78
2023-10-27T07:52:18.969Z,3.03
2023-10-27T07:55:21.485Z,3.03
2023-10-27T07:58:26.504Z,3.13
2023-10-27T08:01:29.126Z,3.15
2023-10-27T08:04:34.223Z,2.90
2023-10-27T08:07:38.081Z,2.90
2023-10-27T08:10:40.993Z,2.80
2023-10-27T08:13:43.586Z,2.63
2023-10-27T08:16:46.589Z,2.88
2023-10-27T08:19:49.348Z,2.72
2023-10-27T08:22:51.942Z,2.83
2023-10-27T08:25:54.615Z,3.08
2023-10-27T08:28:57.029Z,2.80
2023-10-27T08:31:59.683Z,2.90
2023-10-27T08:35:02.597Z,2.83
2023-10-27T08:38:05.039Z,2.47
2023-10-27T08:41:08.896Z,2.20
2023-10-27T08:44:25.024Z,2.67
2023-10-27T08:47:32.147Z,2.63
2023-10-27T08:50:58.604Z,2.50
2023-10-27T08:54:11.811Z,2.47
2023-10-27T08:57:15.639Z,2.55
2023-10-27T09:00:18.282Z,2.38
2023-10-27T09:03:20.822Z,2.70
2023-10-27T09:06:23.373Z,2.60
2023-10-27T09:09:26.487Z,2.27
2023-10-27T09:12:32.263Z,2.10
2023-10-27T09:15:43.299Z,2.63
2023-10-27T09:18:45.836Z,2.78
2023-10-27T09:21:48.625Z,2.20
2023-10-27T09:24:51.354Z,2.50
2023-10-27T09:27:57.755Z,2.42
2023-10-27T09:31:02.153Z,2.22
2023-10-27T09:34:21.233Z,2.40
2023-10-27T09:37:23.802Z,2.10
2023-10-27T09:40:26.330Z,2.23
2023-10-27T09:43:31.711Z,2.30
2023-10-27T09:46:35.346Z,2.05
2023-10-27T09:49:39.932Z,2.40
2023-10-27T09:52:45.989Z,2.45
2023-10-27T09:55:49.194Z,2.10
2023-10-27T09:58:52.819Z,2.25
2023-10-27T10:01:57.218Z,2.17
2023-10-27T10:05:04.473Z,2.22
2023-10-27T10:08:09.816Z,2.30
2023-10-27T10:11:19.391Z,2.40
2023-10-27T10:14:40.851Z,2.10
2023-10-27T10:17:43.468Z,2.38
2023-10-27T10:20:48.982Z,2.05
2023-10-27T10:23:51.714Z,3.58
2023-10-27T10:27:08.493Z,2.63
2023-10-27T10:30:21.758Z,2.22
2023-10-27T10:33:26.394Z,2.60
2023-10-27T10:36:28.997Z,2.33
2023-10-27T10:40:09.681Z,2.00
2023-10-27T10:43:48.915Z,2.20
2023-10-27T10:46:51.838Z,2.20
2023-10-27T10:49:54.374Z,2.40
2023-10-27T10:53:20.869Z,3.50
2023-10-27T10:56:24.221Z,3.47
2023-10-27T10:59:26.681Z,3.37
2023-10-27T11:02:29.234Z,3.00
2023-10-27T11:05:32.114Z,2.28
2023-10-27T11:08:36.985Z,2.30
2023-10-27T11:11:47.558Z,2.83
2023-10-27T11:14:50.727Z,2.30
2023-10-27T11:17:55.665Z,2.03
2023-10-27T11:20:58.730Z,2.50
2023-10-27T11:24:07.706Z,2.38
2023-10-27T11:27:10.168Z,2.33
2023-10-27T11:30:13.004Z,2.00
2023-10-27T11:33:15.456Z,2.22
2023-10-27T11:36:17.865Z,2.13
2023-10-27T11:39:21.725Z,2.10
2023-10-27T11:42:24.111Z,2.00
2023-10-27T11:45:26.494Z,1.90
2023-10-27T11:48:28.967Z,1.98
2023-10-27T11:51:31.831Z,2.08
2023-10-27T11:54:34.442Z,1.83
2023-10-27T11:57:37.336Z,2.00
2023-10-27T12:00:39.760Z,2.23
2023-10-27T12:03:42.192Z,2.05
2023-10-27T12:06:44.999Z,1.70
2023-10-27T12:09:47.545Z,2.00
2023-10-27T12:12:51.456Z,2.05
2023-10-27T12:15:54.257Z,1.80
2023-10-27T12:18:57.672Z,1.83
2023-10-27T12:22:00.153Z,1.80
2023-10-27T12:25:02.633Z,1.50
2023-10-27T12:28:05.688Z,1.60
2023-10-27T12:31:08.119Z,1.50
2023-10-27T12:34:11.981Z,1.33
2023-10-27T12:37:14.759Z,1.70
2023-10-27T12:40:17.338Z,1.45
2023-10-27T12:43:20.826Z,1.50
2023-10-27T12:46:24.201Z,1.40
2023-10-27T12:49:29.404Z,1.35
2023-10-27T12:52:32.111Z,1.20
2023-10-27T12:55:36.520Z,1.30
2023-10-27T12:58:39.635Z,1.25
2023-10-27T13:01:42.437Z,1.00
2023-10-27T13:04:45.103Z,1.10
2023-10-27T13:07:47.722Z,0.90
2023-10-27T13:10:50.130Z,1.00
2023-10-27T13:13:52.918Z,1.10
2023-10-27T13:16:55.538Z,1.00
2023-10-27T13:19:59.090Z,1.23
2023-10-27T13:23:02.894Z,1.10
2023-10-27T13:26:05.513Z,0.90
2023-10-27T13:29:07.903Z,0.90
2023-10-27T13:32:10.334Z,1.07
2023-10-27T13:35:12.873Z,1.10
2023-10-27T13:38:18.331Z,1.10
2023-10-27T13:41:20.906Z,0.93
2023-10-27T13:44:23.960Z,1.10
2023-10-27T13:47:29.243Z,1.10
2023-10-27T13:50:31.810Z,1.15
2023-10-27T13:53:34.191Z,1.35
2023-10-27T13:56:37.118Z,1.10
2023-10-27T13:59:41.380Z,1.05
2023-10-27T14:02:44.418Z,1.00
2023-10-27T14:05:50.517Z,0.75
2023-10-27T14:08:53.377Z,1.20
2023-10-27T14:11:57.561Z,1.00
2023-10-27T14:14:59.946Z,1.08
2023-10-27T14:18:07.146Z,0.93
2023-10-27T14:21:12.399Z,0.95
2023-10-27T14:24:14.877Z,1.00
2023-10-27T14:27:34.656Z,0.73
2023-10-27T14:30:40.561Z,0.90
2023-10-27T14:33:44.042Z,0.90
2023-10-27T14:36:46.691Z,0.80
2023-10-27T14:39:49.489Z,1.00
2023-10-27T14:42:52.010Z,0.80
2023-10-27T14:45:59.469Z,1.00
2023-10-27T14:49:01.986Z,0.70
2023-10-27T14:52:04.801Z,0.90
2023-10-27T14:55:07.508Z,1.30
2023-10-27T14:58:11.182Z,1.05
2023-10-27T15:01:16.381Z,0.85
2023-10-27T15:04:18.799Z,0.83
2023-10-27T15:07:21.915Z,1.25
2023-10-27T15:10:24.551Z,0.90
2023-10-27T15:13:29.448Z,0.82
2023-10-27T15:16:36.674Z,0.90
2023-10-27T15:19:41.107Z,0.80
2023-10-27T15:22:43.611Z,0.95
2023-10-27T15:25:48.323Z,0.88
2023-10-27T15:28:51.321Z,0.90
2023-10-27T15:31:54.668Z,1.08
2023-10-27T15:34:57.608Z,1.00
2023-10-27T15:38:00.078Z,0.80
2023-10-27T15:41:05.021Z,1.10
2023-10-27T15:44:08.142Z,0.70
2023-10-27T15:47:11.188Z,1.15
2023-10-27T15:50:13.668Z,0.80
2023-10-27T15:53:16.056Z,0.55
2023-10-27T15:56:21.650Z,1.00
2023-10-27T15:59:27.821Z,1.00
2023-10-27T16:02:30.234Z,1.02
2023-10-27T16:05:35.740Z,0.77
2023-10-27T16:08:38.198Z,1.45
2023-10-27T16:11:40.816Z,0.90
2023-10-27T16:14:43.194Z,1.05
2023-10-27T16:17:46.008Z,0.70
2023-10-27T16:20:48.478Z,1.10
2023-10-27T16:23:50.876Z,0.90
2023-10-27T16:26:53.274Z,0.55
2023-10-27T16:29:55.625Z,0.80
2023-10-27T16:32:59.413Z,1.10
2023-10-27T16:36:02.760Z,0.97
2023-10-27T16:39:05.708Z,2.17
2023-10-27T16:42:08.504Z,0.85
2023-10-27T16:45:13.704Z,1.02
2023-10-27T16:48:17.861Z,0.73
2023-10-27T16:51:20.454Z,0.90
2023-10-27T16:54:23.323Z,0.70
2023-10-27T16:57:27.608Z,0.80
2023-10-27T17:00:31.225Z,0.68
2023-10-27T17:03:37.083Z,1.10
2023-10-27T17:06:39.587Z,1.00
2023-10-27T17:09:42.106Z,0.93
2023-10-27T17:12:45.204Z,0.70
2023-10-27T17:15:47.676Z,1.08
2023-10-27T17:18:50.089Z,0.70
2023-10-27T17:21:52.460Z,1.03
2023-10-27T17:24:58.120Z,0.70
2023-10-27T17:28:01.335Z,0.80
2023-10-27T17:31:05.149Z,0.75
2023-10-27T17:34:07.646Z,0.68
2023-10-27T17:37:10.957Z,0.80
2023-10-27T17:40:14.202Z,0.80
2023-10-27T17:43:17.323Z,0.75
2023-10-27T17:46:23.760Z,0.70
2023-10-27T17:49:27.829Z,0.90
2023-10-27T17:52:30.359Z,0.90
2023-10-27T17:55:34.110Z,0.80
2023-10-27T17:58:37.488Z,0.88
2023-10-27T18:01:39.915Z,0.80
2023-10-27T18:04:42.466Z,0.82
2023-10-27T18:07:48.408Z,0.67
2023-10-27T18:10:54.277Z,0.50
2023-10-27T18:13:58.115Z,0.73
2023-10-27T18:17:02.043Z,0.70
2023-10-27T18:20:07.720Z,0.63
2023-10-27T18:23:11.075Z,0.70
2023-10-27T18:26:21.424Z,0.95
2023-10-27T18:29:23.801Z,0.82
2023-10-27T18:32:26.266Z,0.70
2023-10-27T18:35:32.126Z,0.60
2023-10-27T18:38:34.636Z,0.60
2023-10-27T18:41:38.862Z,0.70
2023-10-27T18:44:41.659Z,0.80
2023-10-27T18:47:44.913Z,0.73
2023-10-27T18:50:54.456Z,0.55
2023-10-27T18:53:56.826Z,0.80
2023-10-27T18:56:59.695Z,0.60
2023-10-27T19:00:05.820Z,1.00
2023-10-27T19:03:09.408Z,0.60
2023-10-27T19:06:13.521Z,0.70
2023-10-27T19:09:16.216Z,0.60
2023-10-27T19:12:19.012Z,0.70
2023-10-27T19:15:23.194Z,0.43
2023-10-27T19:18:27.652Z,0.90
2023-10-27T19:21:30.138Z,0.80
2023-10-27T19:24:32.588Z,0.60
2023-10-27T19:27:38.561Z,0.65
2023-10-27T19:30:48.953Z,0.60
2023-10-27T19:33:51.555Z,0.65
2023-10-27T19:36:54.125Z,0.70
2023-10-27T19:39:57.400Z,0.60
2023-10-27T19:43:00.025Z,0.60
2023-10-27T19:46:07.834Z,0.77
2023-10-27T19:49:14.168Z,0.70
2023-10-27T19:52:17.215Z,0.80
2023-10-27T19:55:19.748Z,0.60
2023-10-27T19:58:22.196Z,0.80
2023-10-27T20:01:27.014Z,0.68
2023-10-27T20:04:30.562Z,0.73
2023-10-27T20:07:33.178Z,0.60
2023-10-27T20:10:37.206Z,0.47
2023-10-27T20:13:45.219Z,0.60
2023-10-27T20:16:47.759Z,0.70
2023-10-27T20:19:50.256Z,0.70
2023-10-27T20:22:53.008Z,0.70
2023-10-27T20:25:55.952Z,0.47
2023-10-27T20:28:59.769Z,0.60
2023-10-27T20:32:02.207Z,0.68
2023-10-27T20:35:05.941Z,0.50
2023-10-27T20:38:08.773Z,0.70
2023-10-27T20:41:11.141Z,0.60
2023-10-27T20:44:13.530Z,0.50
2023-10-27T20:47:15.958Z,0.68
2023-10-27T20:50:20.181Z,0.60
2023-10-27T20:53:23.616Z,0.60
2023-10-27T20:56:26.148Z,0.50
2023-10-27T20:59:28.740Z,0.60
2023-10-27T21:02:31.343Z,0.70
2023-10-27T21:05:34.927Z,0.60
2023-10-27T21:08:42.516Z,0.63
2023-10-27T21:11:45.165Z,0.53
2023-10-27T21:14:47.696Z,0.70
2023-10-27T21:17:50.160Z,0.50
2023-10-27T21:20:52.528Z,0.88
2023-10-27T21:23:54.900Z,0.50
2023-10-27T21:26:57.292Z,0.60
2023-10-27T21:29:59.704Z,0.60
2023-10-27T21:33:02.467Z,0.50
2023-10-27T21:36:09.416Z,0.40
2023-10-27T21:39:11.899Z,0.60
2023-10-27T21:42:14.274Z,0.40
2023-10-27T21:45:16.712Z,0.60
2023-10-27T21:48:21.392Z,0.60
2023-10-27T21:51:23.944Z,0.60
2023-10-27T21:54:26.342Z,0.50
2023-10-27T21:57:28.717Z,0.53
2023-10-27T22:00:40.805Z,0.40
2023-10-27T22:03:44.120Z,0.52
2023-10-27T22:06:47.838Z,0.52
2023-10-27T22:09:50.341Z,0.70
2023-10-27T22:12:52.807Z,0.40
2023-10-27T22:15:55.608Z,0.60
2023-10-27T22:18:58.061Z,0.60
2023-10-27T22:22:00.449Z,0.60
2023-10-27T22:25:03.794Z,0.60
2023-10-27T22:28:16.323Z,0.57
2023-10-27T22:31:19.079Z,0.70
2023-10-27T22:34:21.645Z,0.65
2023-10-27T22:37:24.097Z,0.60
2023-10-27T22:40:30.274Z,0.50
2023-10-27T22:43:32.646Z,0.50
2023-10-27T22:46:35.942Z,0.57
2023-10-27T22:49:38.876Z,0.65
2023-10-27T22:52:41.512Z,0.60
2023-10-27T22:55:47.607Z,0.60
2023-10-27T22:58:50.174Z,0.50
2023-10-27T23:01:52.599Z,0.63
2023-10-27T23:04:56.280Z,0.50
2023-10-27T23:07:59.145Z,0.60
2023-10-27T23:11:09.768Z,0.60
2023-10-27T23:14:13.136Z,0.60
2023-10-27T23:17:15.617Z,0.40
2023-10-27T23:20:18.575Z,0.50
2023-10-27T23:23:20.974Z,0.60
2023-10-27T23:26:23.530Z,0.30
2023-10-27T23:29:26.654Z,0.40
2023-10-27T23:32:29.020Z,0.50
2023-10-27T23:35:32.935Z,0.47
2023-10-27T23:38:39.678Z,0.40
2023-10-27T23:41:42.102Z,0.60
2023-10-27T23:44:45.750Z,0.50
2023-10-27T23:47:48.224Z,0.50
2023-10-27T23:50:50.899Z,0.50
2023-10-27T23:53:54.192Z,0.40
2023-10-27T23:56:56.569Z,0.45
2023-10-27T23:59:58.952Z,0.40
